Terminal Aerodrome Forecast
Issued by NWS

Home | Current Version | Previous Version | Graphics & Text | Print | Product List | Glossary On
Versions: 1 2 3 4 5 6 7 8 9 10 11 12 13 14 15 16 17
000
FTUS43 KICT 240500
TAFCNU
TAF
KCNU 240520Z 2406/2506 17007KT 4SM BR OVC030
     FM240900 19006KT 2SM BR BKN012
      TEMPO 2409/2413 1SM BR BKN008
     FM241500 20014KT P6SM SCT030=

USA.gov is the U.S. government's official web portal to all federal, state and local government web resources and services.